Armona, California
Current Conditions -  °F | °C
As of 12:53 PM on Friday 31 Oct 2014 (Local Time) from KHJO Reporting Station
Clear Clear  
Wind Chill: 74°   Ceiling: Unl
Heat Index: 74°   Visibility: 10mi
Dew Point: 50°   Wind: 13mph
Humidity: 43%   Direction: 210°SSW
Pressure: 29.84"   Gusts: 18mph
Location:  36.32°N, 119.71°W
Report Text: KHJO 311953Z AUTO 21011G16KT 10SM CLR 23/10 A2984 RMK AO2 SLP104 T02330100
Loading
Personal Weather Stations






























Interactive Weather Map
Tropical Storm Tracking
New forecast layout! Learn more

10-Day Weather Forecast

Advertisements
Track Severe Weather on mobile